createdAt,value
2018-09-09T00:02:02.672Z,10.33
2018-09-09T00:04:37.512Z,10.00
2018-09-09T00:07:12.208Z,10.43
2018-09-09T00:09:47.539Z,10.30
2018-09-09T00:12:22.885Z,9.70
2018-09-09T00:14:57.199Z,9.47
2018-09-09T00:17:31.684Z,9.20
2018-09-09T00:20:06.568Z,9.43
2018-09-09T00:22:41.209Z,9.17
2018-09-09T00:25:16.219Z,9.93
2018-09-09T00:27:50.704Z,8.93
2018-09-09T00:30:25.108Z,9.33
2018-09-09T00:32:59.392Z,10.30
2018-09-09T00:35:33.677Z,11.37
2018-09-09T00:38:08.207Z,11.27
2018-09-09T00:40:43.025Z,13.77
2018-09-09T00:43:17.844Z,13.97
2018-09-09T00:45:53.144Z,14.03
2018-09-09T00:48:27.812Z,11.40
2018-09-09T00:51:08.025Z,11.50
2018-09-09T00:53:43.264Z,10.23
2018-09-09T00:56:17.712Z,10.37
2018-09-09T00:58:52.611Z,9.87
2018-09-09T01:01:27.467Z,9.43
2018-09-09T01:04:02.068Z,9.33
2018-09-09T01:06:36.568Z,9.20
2018-09-09T01:09:12.040Z,9.40
2018-09-09T01:11:46.943Z,9.37
2018-09-09T01:14:21.556Z,8.63
2018-09-09T01:16:56.053Z,8.57
2018-09-09T01:19:30.467Z,9.47
2018-09-09T01:22:05.029Z,8.70
2018-09-09T01:24:39.781Z,8.63
2018-09-09T01:27:14.244Z,7.50
2018-09-09T01:29:48.971Z,8.13
2018-09-09T01:32:23.896Z,8.00
2018-09-09T01:34:58.300Z,8.63
2018-09-09T01:37:32.783Z,8.53
2018-09-09T01:40:07.420Z,8.33
2018-09-09T01:42:41.896Z,7.83
2018-09-09T01:45:16.178Z,9.30
2018-09-09T01:47:50.955Z,9.00
2018-09-09T01:50:25.724Z,9.50
2018-09-09T01:53:00.841Z,9.03
2018-09-09T01:55:35.220Z,8.53
2018-09-09T01:58:09.740Z,9.03
2018-09-09T02:00:44.376Z,9.30
2018-09-09T02:03:19.539Z,9.30
2018-09-09T02:05:54.168Z,9.90
2018-09-09T02:08:28.563Z,10.73
2018-09-09T02:11:03.156Z,8.63
2018-09-09T02:13:37.628Z,9.13
2018-09-09T02:16:12.084Z,8.90
2018-09-09T02:18:47.156Z,9.87
2018-09-09T02:21:21.663Z,9.03
2018-09-09T02:23:56.500Z,9.10
2018-09-09T02:26:30.913Z,9.27
2018-09-09T02:29:05.995Z,8.80
2018-09-09T02:31:40.384Z,8.23
2018-09-09T02:34:14.673Z,8.83
2018-09-09T02:36:49.283Z,8.50
2018-09-09T02:39:23.940Z,9.80
2018-09-09T02:41:58.376Z,8.97
2018-09-09T02:44:32.819Z,8.87
2018-09-09T02:47:07.111Z,8.70
2018-09-09T02:49:41.415Z,8.27
2018-09-09T02:52:16.155Z,8.17
2018-09-09T02:54:50.524Z,8.77
2018-09-09T02:57:25.156Z,8.57
2018-09-09T03:00:00.144Z,9.40
2018-09-09T03:02:34.567Z,9.00
2018-09-09T03:05:09.019Z,9.07
2018-09-09T03:07:43.456Z,9.27
2018-09-09T03:10:18.041Z,11.00
2018-09-09T03:12:52.420Z,9.30
2018-09-09T03:15:26.838Z,8.20
2018-09-09T03:18:01.513Z,12.10
2018-09-09T03:20:36.129Z,9.03
2018-09-09T03:23:10.591Z,8.57
2018-09-09T03:25:44.907Z,9.40
2018-09-09T03:28:19.365Z,9.03
2018-09-09T03:30:54.691Z,9.57
2018-09-09T03:33:29.095Z,9.87
2018-09-09T03:36:03.455Z,9.63
2018-09-09T03:38:38.009Z,9.43
2018-09-09T03:41:12.776Z,9.83
2018-09-09T03:43:47.415Z,9.43
2018-09-09T03:46:21.943Z,8.30
2018-09-09T03:48:56.367Z,8.87
2018-09-09T03:51:30.691Z,8.73
2018-09-09T03:54:05.475Z,9.00
2018-09-09T03:56:39.842Z,8.77
2018-09-09T03:59:14.222Z,8.47
2018-09-09T04:01:48.667Z,8.60
2018-09-09T04:04:22.967Z,9.87
2018-09-09T04:06:57.308Z,8.10
2018-09-09T04:09:31.573Z,8.57
2018-09-09T04:12:05.886Z,8.30
2018-09-09T04:14:40.748Z,7.93
2018-09-09T04:17:15.184Z,8.97
2018-09-09T04:19:49.616Z,8.80
2018-09-09T04:22:24.284Z,9.00
2018-09-09T04:24:58.772Z,8.73
2018-09-09T04:27:33.227Z,8.90
2018-09-09T04:30:07.718Z,8.00
2018-09-09T04:32:42.535Z,8.10
2018-09-09T04:35:17.225Z,8.37
2018-09-09T04:37:51.692Z,8.47
2018-09-09T04:40:26.012Z,8.00
2018-09-09T04:43:00.863Z,7.43
2018-09-09T04:45:35.995Z,7.70
2018-09-09T04:48:10.283Z,7.87
2018-09-09T04:50:44.707Z,7.37
2018-09-09T04:53:19.279Z,8.87
2018-09-09T04:55:53.964Z,7.53
2018-09-09T04:58:28.403Z,8.13
2018-09-09T05:01:03.091Z,8.10
2018-09-09T05:03:37.526Z,8.27
2018-09-09T05:06:12.624Z,7.10
2018-09-09T05:08:46.911Z,7.50
2018-09-09T05:11:21.612Z,7.27
2018-09-09T05:13:56.328Z,7.93
2018-09-09T05:16:30.825Z,8.10
2018-09-09T05:19:05.748Z,8.80
2018-09-09T05:21:40.489Z,8.93
2018-09-09T05:24:15.284Z,7.20
2018-09-09T05:26:49.872Z,6.97
2018-09-09T05:29:24.260Z,8.83
2018-09-09T05:31:59.511Z,10.20
2018-09-09T05:34:33.901Z,8.03
2018-09-09T05:37:08.428Z,7.87
2018-09-09T05:39:43.935Z,8.13
2018-09-09T05:42:18.807Z,7.27
2018-09-09T05:44:53.500Z,7.70
2018-09-09T05:47:27.865Z,8.50
2018-09-09T05:50:02.679Z,8.20
2018-09-09T05:52:37.111Z,8.20
2018-09-09T05:55:11.718Z,8.90
2018-09-09T05:57:46.833Z,8.40
2018-09-09T06:00:22.068Z,8.57
2018-09-09T06:02:56.508Z,8.30
2018-09-09T06:05:31.791Z,9.83
2018-09-09T06:08:06.545Z,9.50
2018-09-09T06:10:41.391Z,9.27
2018-09-09T06:13:16.041Z,9.80
2018-09-09T06:15:50.710Z,9.93
2018-09-09T06:18:31.849Z,9.90
2018-09-09T06:21:09.620Z,10.70
2018-09-09T06:23:44.296Z,10.27
2018-09-09T06:26:18.872Z,10.37
2018-09-09T06:28:53.421Z,10.67
2018-09-09T06:31:27.790Z,11.23
2018-09-09T06:34:02.208Z,11.03
2018-09-09T06:36:36.916Z,10.70
2018-09-09T06:39:12.324Z,10.13
2018-09-09T06:41:47.039Z,13.03
2018-09-09T06:44:21.556Z,10.43
2018-09-09T06:46:56.201Z,9.70
2018-09-09T06:49:30.997Z,9.77
2018-09-09T06:52:06.153Z,9.50
2018-09-09T06:54:40.549Z,9.40
2018-09-09T06:57:15.093Z,9.57
2018-09-09T06:59:49.875Z,9.47
2018-09-09T07:02:24.482Z,10.50
2018-09-09T07:04:59.332Z,9.40
2018-09-09T07:07:34.080Z,9.23
2018-09-09T07:10:08.575Z,8.50
2018-09-09T07:12:43.405Z,9.37
2018-09-09T07:15:17.813Z,9.13
2018-09-09T07:17:52.199Z,8.07
2018-09-09T07:20:27.136Z,8.60
2018-09-09T07:23:01.645Z,9.10
2018-09-09T07:25:36.036Z,10.70
2018-09-09T07:28:10.352Z,8.63
2018-09-09T07:30:44.846Z,8.20
2018-09-09T07:33:19.295Z,8.90
2018-09-09T07:35:53.802Z,8.17
2018-09-09T07:38:28.236Z,7.93
2018-09-09T07:41:02.603Z,7.83
2018-09-09T07:43:37.060Z,7.60
2018-09-09T07:46:11.456Z,7.97
2018-09-09T07:48:45.909Z,7.27
2018-09-09T07:51:20.549Z,8.00
2018-09-09T07:53:54.957Z,8.03
2018-09-09T07:56:29.464Z,7.13
2018-09-09T07:59:03.915Z,8.00
2018-09-09T08:01:38.332Z,6.57
2018-09-09T08:04:12.856Z,7.00
2018-09-09T08:06:47.260Z,6.90
2018-09-09T08:09:22.472Z,6.70
2018-09-09T08:11:56.981Z,6.07
2018-09-09T08:14:31.987Z,6.20
2018-09-09T08:17:06.713Z,5.97
2018-09-09T08:19:41.183Z,6.37
2018-09-09T08:22:15.508Z,6.50
2018-09-09T08:24:49.957Z,5.77
2018-09-09T08:27:24.299Z,5.63
2018-09-09T08:29:58.611Z,5.20
2018-09-09T08:32:33.156Z,5.63
2018-09-09T08:35:07.930Z,5.07
2018-09-09T08:37:42.483Z,5.40
2018-09-09T08:40:16.944Z,5.00
2018-09-09T08:42:54.689Z,5.30
2018-09-09T08:45:29.589Z,5.60
2018-09-09T08:48:05.123Z,5.07
2018-09-09T08:50:39.707Z,4.93
2018-09-09T08:53:14.257Z,5.00
2018-09-09T08:55:48.958Z,5.13
2018-09-09T08:58:23.777Z,5.23
2018-09-09T09:00:58.121Z,5.30
2018-09-09T09:03:32.559Z,5.07
2018-09-09T09:06:07.155Z,4.50
2018-09-09T09:08:41.873Z,5.10
2018-09-09T09:11:15.539Z,4.87
2018-09-09T09:13:50.400Z,5.00
2018-09-09T09:16:24.859Z,5.30
2018-09-09T09:18:59.392Z,4.90
2018-09-09T09:21:34.573Z,5.33
2018-09-09T09:24:09.138Z,4.50
2018-09-09T09:26:44.628Z,4.50
2018-09-09T09:29:19.279Z,3.80
2018-09-09T09:31:54.128Z,4.47
2018-09-09T09:34:28.482Z,4.40
2018-09-09T09:37:03.316Z,4.73
2018-09-09T09:39:37.757Z,4.70
2018-09-09T09:42:12.239Z,5.10
2018-09-09T09:44:46.764Z,5.40
2018-09-09T09:47:21.470Z,5.10
2018-09-09T09:49:55.939Z,4.70
2018-09-09T09:52:33.625Z,5.03
2018-09-09T09:55:08.535Z,7.87
2018-09-09T09:57:43.313Z,7.07
2018-09-09T10:00:23.515Z,4.20
2018-09-09T10:02:58.500Z,4.30
2018-09-09T10:05:33.689Z,4.47
2018-09-09T10:08:09.468Z,3.90
2018-09-09T10:10:44.304Z,5.23
2018-09-09T10:13:18.774Z,4.40
2018-09-09T10:15:53.183Z,3.60
2018-09-09T10:18:27.837Z,5.80
2018-09-09T10:21:05.542Z,4.47
2018-09-09T10:23:42.474Z,4.00
2018-09-09T10:26:17.203Z,5.00
2018-09-09T10:28:51.624Z,6.17
2018-09-09T10:31:26.317Z,5.13
2018-09-09T10:34:00.834Z,3.80
2018-09-09T10:36:35.907Z,4.60
2018-09-09T10:39:11.579Z,4.37
2018-09-09T10:41:46.044Z,3.90
2018-09-09T10:44:20.429Z,4.73
2018-09-09T10:46:55.217Z,4.00
2018-09-09T10:49:30.038Z,4.40
2018-09-09T10:52:04.650Z,4.20
2018-09-09T10:54:38.904Z,3.90
2018-09-09T10:57:13.924Z,4.27
2018-09-09T10:59:49.020Z,4.50
2018-09-09T11:02:23.532Z,3.93
2018-09-09T11:04:59.234Z,4.10
2018-09-09T11:07:34.439Z,6.43
2018-09-09T11:10:08.838Z,3.60
2018-09-09T11:12:46.625Z,3.63
2018-09-09T11:15:25.051Z,5.70
2018-09-09T11:18:00.501Z,4.67
2018-09-09T11:20:35.040Z,4.43
2018-09-09T11:23:13.343Z,3.73
2018-09-09T11:25:48.213Z,5.33
2018-09-09T11:28:22.533Z,3.97
2018-09-09T11:30:57.052Z,5.20
2018-09-09T11:36:21.608Z,3.20
2018-09-09T11:38:57.100Z,4.60
2018-09-09T11:41:35.395Z,3.43
2018-09-09T11:44:10.400Z,3.10
2018-09-09T11:46:44.811Z,3.17
2018-09-09T11:49:25.902Z,3.00
2018-09-09T11:52:06.246Z,3.30
2018-09-09T11:54:42.830Z,3.53
2018-09-09T11:57:18.261Z,3.87
2018-09-09T12:02:35.412Z,3.90
2018-09-09T12:05:10.429Z,3.80
2018-09-09T12:07:45.101Z,3.70
2018-09-09T12:10:19.983Z,3.40
2018-09-09T12:12:55.208Z,3.20
2018-09-09T12:15:30.149Z,3.13
2018-09-09T12:18:04.793Z,3.67
2018-09-09T12:20:39.367Z,4.37
2018-09-09T12:23:13.980Z,3.83
2018-09-09T12:25:49.027Z,3.63
2018-09-09T12:28:23.564Z,3.70
2018-09-09T12:30:57.963Z,4.17
2018-09-09T12:33:34.638Z,3.73
2018-09-09T12:36:11.094Z,3.30
2018-09-09T12:38:51.958Z,3.30
2018-09-09T12:41:26.828Z,4.93
2018-09-09T12:46:10.063Z,3.50
2018-09-09T12:48:49.902Z,3.50
2018-09-09T12:51:24.871Z,4.10
2018-09-09T12:53:59.812Z,3.20
2018-09-09T12:56:35.432Z,3.90
2018-09-09T12:59:10.416Z,3.80
2018-09-09T13:01:44.744Z,3.47
2018-09-09T13:04:19.230Z,4.33
2018-09-09T13:06:53.829Z,4.23
2018-09-09T13:09:29.084Z,3.90
2018-09-09T13:12:03.821Z,4.57
2018-09-09T13:14:38.247Z,3.50
2018-09-09T13:17:12.529Z,3.40
2018-09-09T13:19:46.910Z,3.50
2018-09-09T13:22:21.353Z,4.07
2018-09-09T13:24:55.846Z,5.07
2018-09-09T13:27:30.228Z,3.53
2018-09-09T13:30:04.645Z,4.80
2018-09-09T13:32:40.070Z,6.00
2018-09-09T13:35:14.569Z,3.97
2018-09-09T13:37:49.189Z,2.87
2018-09-09T13:40:28.112Z,3.43
2018-09-09T13:43:03.936Z,3.40
2018-09-09T13:45:38.700Z,3.30
2018-09-09T13:48:13.765Z,3.30
2018-09-09T13:50:49.139Z,3.30
2018-09-09T13:53:24.546Z,3.20
2018-09-09T13:55:59.845Z,3.67
2018-09-09T13:58:34.644Z,3.00
2018-09-09T14:01:09.309Z,2.97
2018-09-09T14:03:44.202Z,4.63
2018-09-09T14:06:18.871Z,3.47
2018-09-09T14:08:53.461Z,4.07
2018-09-09T14:11:28.185Z,3.67
2018-09-09T14:14:03.068Z,3.20
2018-09-09T14:16:37.583Z,3.27
2018-09-09T14:19:12.200Z,3.30
2018-09-09T14:21:47.001Z,2.80
2018-09-09T14:24:21.520Z,7.33
2018-09-09T14:26:57.073Z,3.37
2018-09-09T14:29:31.876Z,3.00
2018-09-09T14:32:06.475Z,4.10
2018-09-09T14:34:41.149Z,5.87
2018-09-09T14:37:16.084Z,3.57
2018-09-09T14:39:50.653Z,3.03
2018-09-09T14:42:25.213Z,4.07
2018-09-09T14:44:59.812Z,3.30
2018-09-09T14:47:34.672Z,4.07
2018-09-09T14:50:10.100Z,3.30
2018-09-09T14:52:44.471Z,3.10
2018-09-09T14:55:19.040Z,3.20
2018-09-09T14:57:53.824Z,3.20
2018-09-09T15:00:29.010Z,4.13
2018-09-09T15:03:03.456Z,3.30
2018-09-09T15:05:38.254Z,3.23
2018-09-09T15:08:12.879Z,3.13
2018-09-09T15:10:47.476Z,3.60
2018-09-09T15:13:22.594Z,4.37
2018-09-09T15:15:57.289Z,3.63
2018-09-09T15:18:32.640Z,3.20
2018-09-09T15:21:07.015Z,3.97
2018-09-09T15:23:41.529Z,3.23
2018-09-09T15:26:16.372Z,3.00
2018-09-09T15:28:50.836Z,3.60
2018-09-09T15:31:25.383Z,3.43
2018-09-09T15:34:00.472Z,3.83
2018-09-09T15:36:34.759Z,3.63
2018-09-09T15:39:09.512Z,4.53
2018-09-09T15:41:51.543Z,3.20
2018-09-09T15:44:26.104Z,3.10
2018-09-09T15:47:03.449Z,5.10
2018-09-09T15:53:14.580Z,3.13
2018-09-09T15:55:49.571Z,3.40
2018-09-09T15:58:24.100Z,3.50
2018-09-09T16:00:58.941Z,5.07
2018-09-09T16:03:33.440Z,3.57
2018-09-09T16:06:08.126Z,4.07
2018-09-09T16:08:50.163Z,3.47
2018-09-09T16:11:24.931Z,3.20
2018-09-09T16:13:59.725Z,3.37
2018-09-09T16:16:34.445Z,3.00
2018-09-09T16:19:08.820Z,3.37
2018-09-09T16:21:43.529Z,5.63
2018-09-09T16:24:18.115Z,4.50
2018-09-09T16:26:53.052Z,3.50
2018-09-09T16:29:27.713Z,3.17
2018-09-09T16:32:02.394Z,3.20
2018-09-09T16:34:37.051Z,3.20
2018-09-09T16:37:11.989Z,3.73
2018-09-09T16:39:46.728Z,3.40
2018-09-09T16:42:21.261Z,3.47
2018-09-09T16:44:56.967Z,3.83
2018-09-09T16:47:32.735Z,3.10
2018-09-09T16:50:07.365Z,3.60
2018-09-09T16:52:42.456Z,3.87
2018-09-09T16:55:17.253Z,3.20
2018-09-09T16:57:53.758Z,3.73
2018-09-09T17:00:28.504Z,3.37
2018-09-09T17:03:04.618Z,3.57
2018-09-09T17:05:39.552Z,3.30
2018-09-09T17:08:14.050Z,3.80
2018-09-09T17:10:48.711Z,3.70
2018-09-09T17:13:24.434Z,3.50
2018-09-09T17:16:03.132Z,4.70
2018-09-09T17:18:38.156Z,3.73
2018-09-09T17:21:18.919Z,3.60
2018-09-09T17:23:53.737Z,4.03
2018-09-09T17:26:28.166Z,4.87
2018-09-09T17:29:03.693Z,4.20
2018-09-09T17:31:38.112Z,3.77
2018-09-09T17:34:12.561Z,4.27
2018-09-09T17:36:46.971Z,4.10
2018-09-09T17:39:21.384Z,3.90
2018-09-09T17:41:56.440Z,3.67
2018-09-09T17:44:31.229Z,3.50
2018-09-09T17:47:06.364Z,4.23
2018-09-09T17:49:40.663Z,4.53
2018-09-09T17:52:15.448Z,4.37
2018-09-09T17:54:49.972Z,4.57
2018-09-09T17:57:24.251Z,4.97
2018-09-09T17:59:59.045Z,6.73
2018-09-09T18:02:33.473Z,4.37
2018-09-09T18:05:09.088Z,4.43
2018-09-09T18:07:43.492Z,4.40
2018-09-09T18:10:18.157Z,5.00
2018-09-09T18:12:52.589Z,4.23
2018-09-09T18:15:27.154Z,6.03
2018-09-09T18:18:02.510Z,4.27
2018-09-09T18:20:37.323Z,4.37
2018-09-09T18:23:14.641Z,4.87
2018-09-09T18:25:50.713Z,4.67
2018-09-09T18:28:26.271Z,5.90
2018-09-09T18:31:02.491Z,4.60
2018-09-09T18:33:37.124Z,4.60
2018-09-09T18:36:12.016Z,4.53
2018-09-09T18:38:46.561Z,6.77
2018-09-09T18:41:21.984Z,8.07
2018-09-09T18:43:56.588Z,7.30
2018-09-09T18:46:31.135Z,7.90
2018-09-09T18:49:06.301Z,7.87
2018-09-09T18:51:42.613Z,8.63
2018-09-09T18:54:17.782Z,6.50
2018-09-09T18:56:52.842Z,6.60
2018-09-09T18:59:27.846Z,5.93
2018-09-09T19:02:03.163Z,5.80
2018-09-09T19:04:37.689Z,8.83
2018-09-09T19:07:12.256Z,6.23
2018-09-09T19:09:46.923Z,5.90
2018-09-09T19:12:21.343Z,5.17
2018-09-09T19:14:55.796Z,5.83
2018-09-09T19:17:30.240Z,7.07
2018-09-09T19:20:07.928Z,5.70
2018-09-09T19:22:42.424Z,7.23
2018-09-09T19:25:17.128Z,5.67
2018-09-09T19:27:51.905Z,7.17
2018-09-09T19:30:26.353Z,7.90
2018-09-09T19:33:00.707Z,6.60
2018-09-09T19:35:35.071Z,6.47
2018-09-09T19:38:09.500Z,6.83
2018-09-09T19:40:44.573Z,7.03
2018-09-09T19:43:19.016Z,7.23
2018-09-09T19:45:53.728Z,8.10
2018-09-09T19:48:28.400Z,7.60
2018-09-09T19:51:03.291Z,7.30
2018-09-09T19:53:41.773Z,7.87
2018-09-09T19:56:17.245Z,9.17
2018-09-09T19:58:52.080Z,10.07
2018-09-09T20:01:27.057Z,11.20
2018-09-09T20:04:01.567Z,9.53
2018-09-09T20:06:36.184Z,12.47
2018-09-09T20:09:11.709Z,14.47
2018-09-09T20:11:46.828Z,9.97
2018-09-09T20:14:21.465Z,13.93
2018-09-09T20:16:56.001Z,10.07
2018-09-09T20:19:30.936Z,10.40
2018-09-09T20:22:08.075Z,10.20
2018-09-09T20:24:42.397Z,9.53
2018-09-09T20:27:16.831Z,10.87
2018-09-09T20:29:51.122Z,9.00
2018-09-09T20:32:25.502Z,9.00
2018-09-09T20:34:59.993Z,9.20
2018-09-09T20:37:34.442Z,9.17
2018-09-09T20:40:09.460Z,9.10
2018-09-09T20:42:44.232Z,9.07
2018-09-09T20:45:18.796Z,10.47
2018-09-09T20:47:53.333Z,10.33
2018-09-09T20:50:27.976Z,12.50
2018-09-09T20:53:02.816Z,9.07
2018-09-09T20:55:37.245Z,9.40
2018-09-09T20:58:14.166Z,10.03
2018-09-09T21:00:48.734Z,8.20
2018-09-09T21:03:24.062Z,9.47
2018-09-09T21:05:58.888Z,7.60
2018-09-09T21:08:38.112Z,8.73
2018-09-09T21:11:13.118Z,7.63
2018-09-09T21:13:55.270Z,12.50
2018-09-09T21:16:30.162Z,8.50
2018-09-09T21:19:05.085Z,8.83
2018-09-09T21:21:40.338Z,7.90
2018-09-09T21:24:15.610Z,7.87
2018-09-09T21:26:51.452Z,7.93
2018-09-09T21:29:26.054Z,7.67
2018-09-09T21:32:00.795Z,11.90
2018-09-09T21:34:35.569Z,7.83
2018-09-09T21:37:11.866Z,7.77
2018-09-09T21:39:46.761Z,9.87
2018-09-09T21:42:21.176Z,8.03
2018-09-09T21:44:55.970Z,7.33
2018-09-09T21:47:30.668Z,7.53
2018-09-09T21:50:05.434Z,8.00
2018-09-09T21:52:40.068Z,7.43
2018-09-09T21:55:14.717Z,7.87
2018-09-09T21:57:49.138Z,7.63
2018-09-09T22:00:23.499Z,7.57
2018-09-09T22:02:58.297Z,7.47
2018-09-09T22:05:32.687Z,7.13
2018-09-09T22:08:07.082Z,7.97
2018-09-09T22:10:41.509Z,7.27
2018-09-09T22:13:15.932Z,8.83
2018-09-09T22:15:54.446Z,7.83
2018-09-09T22:18:29.025Z,7.93
2018-09-09T22:21:03.863Z,7.73
2018-09-09T22:23:39.562Z,7.73
2018-09-09T22:26:16.436Z,7.40
2018-09-09T22:28:51.575Z,7.23
2018-09-09T22:31:25.973Z,8.00
2018-09-09T22:34:00.248Z,7.10
2018-09-09T22:36:34.677Z,8.50
2018-09-09T22:39:11.028Z,7.07
2018-09-09T22:41:45.717Z,6.87
2018-09-09T22:44:22.232Z,7.17
2018-09-09T22:46:58.006Z,7.53
2018-09-09T22:49:32.410Z,7.80
2018-09-09T22:52:07.794Z,7.70
2018-09-09T22:54:42.088Z,7.80
2018-09-09T22:57:19.295Z,7.43
2018-09-09T22:59:53.777Z,8.10
2018-09-09T23:02:28.528Z,7.87
2018-09-09T23:05:03.004Z,8.17
2018-09-09T23:07:37.807Z,9.53
2018-09-09T23:10:13.626Z,8.40
2018-09-09T23:12:48.080Z,8.17
2018-09-09T23:15:26.398Z,7.43
2018-09-09T23:18:01.071Z,7.70
2018-09-09T23:20:35.569Z,9.27
2018-09-09T23:23:10.435Z,7.30
2018-09-09T23:25:44.805Z,7.60
2018-09-09T23:28:19.587Z,8.07
2018-09-09T23:30:54.324Z,7.80
2018-09-09T23:33:28.988Z,7.30
2018-09-09T23:36:03.388Z,8.20
2018-09-09T23:38:38.449Z,7.43
2018-09-09T23:41:13.185Z,9.73
2018-09-09T23:43:47.667Z,7.67
2018-09-09T23:46:22.388Z,7.67
2018-09-09T23:48:56.631Z,7.97
2018-09-09T23:51:31.116Z,7.17
2018-09-09T23:54:05.775Z,7.63
2018-09-09T23:56:40.532Z,7.60
2018-09-09T23:59:15.284Z,6.73
